sensor_id;sensor_type;location;lat;lon;timestamp;pressure;altitude;pressure_sealevel;temperature;humidity
11038;BME280;5572;49.540;11.932;2023-07-29T00:00:10;94306.19;;;18.73;100.00
11038;BME280;5572;49.540;11.932;2023-07-29T00:02:37;94306.22;;;18.66;100.00
11038;BME280;5572;49.540;11.932;2023-07-29T00:05:04;94293.69;;;18.69;100.00
11038;BME280;5572;49.540;11.932;2023-07-29T00:07:31;94275.72;;;18.64;100.00
11038;BME280;5572;49.540;11.932;2023-07-29T00:09:57;94274.53;;;18.69;100.00
11038;BME280;5572;49.540;11.932;2023-07-29T00:12:26;94272.56;;;18.69;100.00
11038;BME280;5572;49.540;11.932;2023-07-29T00:14:52;94269.06;;;18.69;100.00
11038;BME280;5572;49.540;11.932;2023-07-29T00:17:19;94269.44;;;18.74;100.00
11038;BME280;5572;49.540;11.932;2023-07-29T00:19:46;94266.31;;;18.69;100.00
11038;BME280;5572;49.540;11.932;2023-07-29T00:22:13;94265.94;;;18.67;100.00
11038;BME280;5572;49.540;11.932;2023-07-29T00:24:40;94258.50;;;18.71;100.00
11038;BME280;5572;49.540;11.932;2023-07-29T00:27:06;94272.59;;;18.66;100.00
11038;BME280;5572;49.540;11.932;2023-07-29T00:29:35;94265.53;;;18.75;100.00
11038;BME280;5572;49.540;11.932;2023-07-29T00:32:01;94264.34;;;18.69;100.00
11038;BME280;5572;49.540;11.932;2023-07-29T00:34:28;94264.00;;;18.60;100.00
11038;BME280;5572;49.540;11.932;2023-07-29T00:36:56;94249.91;;;18.69;100.00
11038;BME280;5572;49.540;11.932;2023-07-29T00:39:22;94251.44;;;18.77;100.00
11038;BME280;5572;49.540;11.932;2023-07-29T00:41:49;94250.66;;;18.69;100.00
11038;BME280;5572;49.540;11.932;2023-07-29T00:44:16;94259.66;;;18.73;100.00
11038;BME280;5572;49.540;11.932;2023-07-29T00:46:45;94249.09;;;18.75;100.00
11038;BME280;5572;49.540;11.932;2023-07-29T00:49:13;94263.97;;;18.71;100.00
11038;BME280;5572;49.540;11.932;2023-07-29T00:51:39;94272.97;;;18.68;100.00
11038;BME280;5572;49.540;11.932;2023-07-29T00:56:34;94266.31;;;18.72;100.00
11038;BME280;5572;49.540;11.932;2023-07-29T00:59:01;94273.38;;;18.70;100.00
11038;BME280;5572;49.540;11.932;2023-07-29T01:01:28;94267.88;;;18.73;100.00
11038;BME280;5572;49.540;11.932;2023-07-29T01:03:56;94263.56;;;18.72;100.00
11038;BME280;5572;49.540;11.932;2023-07-29T01:06:27;94267.47;;;18.75;100.00
11038;BME280;5572;49.540;11.932;2023-07-29T01:08:59;94251.47;;;18.70;100.00
11038;BME280;5572;49.540;11.932;2023-07-29T01:11:38;94256.50;;;18.82;100.00
11038;BME280;5572;49.540;11.932;2023-07-29T01:14:14;94259.28;;;18.71;100.00
11038;BME280;5572;49.540;11.932;2023-07-29T01:16:49;94266.69;;;18.74;100.00
11038;BME280;5572;49.540;11.932;2023-07-29T01:19:34;94264.72;;;18.75;100.00
11038;BME280;5572;49.540;11.932;2023-07-29T01:22:07;94265.53;;;18.75;100.00
11038;BME280;5572;49.540;11.932;2023-07-29T01:24:35;94269.06;;;18.72;100.00
11038;BME280;5572;49.540;11.932;2023-07-29T01:27:02;94263.56;;;18.76;100.00
11038;BME280;5572;49.540;11.932;2023-07-29T01:29:30;94269.06;;;18.69;100.00
11038;BME280;5572;49.540;11.932;2023-07-29T01:32:02;94271.00;;;18.75;100.00
11038;BME280;5572;49.540;11.932;2023-07-29T01:34:36;94276.13;;;18.66;100.00
11038;BME280;5572;49.540;11.932;2023-07-29T01:37:06;94262.03;;;18.68;100.00
11038;BME280;5572;49.540;11.932;2023-07-29T01:39:37;94265.91;;;18.74;100.00
11038;BME280;5572;49.540;11.932;2023-07-29T01:42:04;94266.69;;;18.74;100.00
11038;BME280;5572;49.540;11.932;2023-07-29T01:44:32;94279.66;;;18.60;100.00
11038;BME280;5572;49.540;11.932;2023-07-29T01:46:59;94278.44;;;18.68;100.00
11038;BME280;5572;49.540;11.932;2023-07-29T01:49:26;94268.25;;;18.68;100.00
11038;BME280;5572;49.540;11.932;2023-07-29T01:51:52;94268.25;;;18.72;100.00
11038;BME280;5572;49.540;11.932;2023-07-29T01:54:19;94270.22;;;18.71;100.00
11038;BME280;5572;49.540;11.932;2023-07-29T01:56:47;94285.09;;;18.67;100.00
11038;BME280;5572;49.540;11.932;2023-07-29T01:59:13;94283.13;;;18.74;100.00
11038;BME280;5572;49.540;11.932;2023-07-29T02:01:41;94282.72;;;18.72;100.00
11038;BME280;5572;49.540;11.932;2023-07-29T02:04:08;94271.41;;;18.67;100.00
11038;BME280;5572;49.540;11.932;2023-07-29T02:06:35;94272.59;;;18.66;100.00
11038;BME280;5572;49.540;11.932;2023-07-29T02:09:01;94269.84;;;18.69;100.00
11038;BME280;5572;49.540;11.932;2023-07-29T02:11:29;94269.44;;;18.64;100.00
11038;BME280;5572;49.540;11.932;2023-07-29T02:13:57;94274.16;;;18.67;100.00
11038;BME280;5572;49.540;11.932;2023-07-29T02:16:24;94254.59;;;18.65;100.00
11038;BME280;5572;49.540;11.932;2023-07-29T02:18:50;94276.88;;;18.67;100.00
11038;BME280;5572;49.540;11.932;2023-07-29T02:21:17;94269.06;;;18.62;100.00
11038;BME280;5572;49.540;11.932;2023-07-29T02:23:44;94279.66;;;18.56;100.00
11038;BME280;5572;49.540;11.932;2023-07-29T02:26:10;94292.94;;;18.58;100.00
11038;BME280;5572;49.540;11.932;2023-07-29T02:28:37;94296.06;;;18.56;100.00
11038;BME280;5572;49.540;11.932;2023-07-29T02:31:14;94287.06;;;18.56;100.00
11038;BME280;5572;49.540;11.932;2023-07-29T02:33:41;94299.97;;;18.55;100.00
11038;BME280;5572;49.540;11.932;2023-07-29T02:36:08;94289.81;;;18.66;100.00
11038;BME280;5572;49.540;11.932;2023-07-29T02:38:34;94299.97;;;18.59;100.00
11038;BME280;5572;49.540;11.932;2023-07-29T02:41:01;94296.44;;;18.65;100.00
11038;BME280;5572;49.540;11.932;2023-07-29T02:43:27;94307.00;;;18.60;100.00
11038;BME280;5572;49.540;11.932;2023-07-29T02:45:54;94295.66;;;18.61;100.00
11038;BME280;5572;49.540;11.932;2023-07-29T02:48:22;94292.53;;;18.56;100.00
11038;BME280;5572;49.540;11.932;2023-07-29T02:50:49;94292.97;;;18.51;100.00
11038;BME280;5572;49.540;11.932;2023-07-29T02:53:15;94293.34;;;18.56;100.00
11038;BME280;5572;49.540;11.932;2023-07-29T02:55:42;94284.31;;;18.63;100.00
11038;BME280;5572;49.540;11.932;2023-07-29T02:58:08;94277.69;;;18.60;100.00
11038;BME280;5572;49.540;11.932;2023-07-29T03:00:35;94277.28;;;18.58;100.00
11038;BME280;5572;49.540;11.932;2023-07-29T03:03:01;94274.16;;;18.60;100.00
11038;BME280;5572;49.540;11.932;2023-07-29T03:05:29;94262.81;;;18.65;100.00
11038;BME280;5572;49.540;11.932;2023-07-29T03:07:57;94272.59;;;18.62;100.00
11038;BME280;5572;49.540;11.932;2023-07-29T03:10:24;94260.47;;;18.53;100.00
11038;BME280;5572;49.540;11.932;2023-07-29T03:12:50;94248.38;;;18.50;100.00
11038;BME280;5572;49.540;11.932;2023-07-29T03:15:17;94241.72;;;18.55;100.00
11038;BME280;5572;49.540;11.932;2023-07-29T03:17:44;94253.06;;;18.53;100.00
11038;BME280;5572;49.540;11.932;2023-07-29T03:20:10;94258.56;;;18.46;100.00
11038;BME280;5572;49.540;11.932;2023-07-29T03:22:38;94262.47;;;18.45;100.00
11038;BME280;5572;49.540;11.932;2023-07-29T03:25:05;94255.41;;;18.55;100.00
11038;BME280;5572;49.540;11.932;2023-07-29T03:27:32;94251.88;;;18.61;100.00
11038;BME280;5572;49.540;11.932;2023-07-29T03:29:58;94239.78;;;18.55;100.00
11038;BME280;5572;49.540;11.932;2023-07-29T03:32:25;94258.19;;;18.44;100.00
11038;BME280;5572;49.540;11.932;2023-07-29T03:34:51;94249.97;;;18.37;100.00
11038;BME280;5572;49.540;11.932;2023-07-29T03:37:19;94253.09;;;18.43;100.00
11038;BME280;5572;49.540;11.932;2023-07-29T03:39:48;94248.78;;;18.49;100.00
11038;BME280;5572;49.540;11.932;2023-07-29T03:42:14;94252.72;;;18.41;100.00
11038;BME280;5572;49.540;11.932;2023-07-29T03:44:41;94248.78;;;18.38;100.00
11038;BME280;5572;49.540;11.932;2023-07-29T03:47:07;94251.91;;;18.44;100.00
11038;BME280;5572;49.540;11.932;2023-07-29T03:49:34;94267.97;;;18.31;100.00
11038;BME280;5572;49.540;11.932;2023-07-29T03:52:00;94270.28;;;18.33;100.00
11038;BME280;5572;49.540;11.932;2023-07-29T03:54:27;94273.03;;;18.33;100.00
11038;BME280;5572;49.540;11.932;2023-07-29T03:56:55;94267.97;;;18.24;100.00
11038;BME280;5572;49.540;11.932;2023-07-29T03:59:21;94278.91;;;18.31;100.00
11038;BME280;5572;49.540;11.932;2023-07-29T04:01:48;94284.41;;;18.24;100.00
11038;BME280;5572;49.540;11.932;2023-07-29T04:04:15;94274.63;;;18.27;100.00
11038;BME280;5572;49.540;11.932;2023-07-29T04:06:42;94294.53;;;18.34;100.00
11038;BME280;5572;49.540;11.932;2023-07-29T04:09:08;94300.38;;;18.33;100.00
11038;BME280;5572;49.540;11.932;2023-07-29T04:11:35;94300.78;;;18.35;100.00
11038;BME280;5572;49.540;11.932;2023-07-29T04:14:03;94299.22;;;18.41;100.00
11038;BME280;5572;49.540;11.932;2023-07-29T04:16:30;94298.03;;;18.42;100.00
11038;BME280;5572;49.540;11.932;2023-07-29T04:18:56;94293.72;;;18.55;100.00
11038;BME280;5572;49.540;11.932;2023-07-29T04:21:23;94285.16;;;18.42;100.00
11038;BME280;5572;49.540;11.932;2023-07-29T04:23:49;94289.06;;;18.31;100.00
11038;BME280;5572;49.540;11.932;2023-07-29T04:26:16;94282.81;;;18.30;100.00
11038;BME280;5572;49.540;11.932;2023-07-29T04:28:42;94275.78;;;18.26;100.00
11038;BME280;5572;49.540;11.932;2023-07-29T04:31:10;94279.28;;;18.16;100.00
11038;BME280;5572;49.540;11.932;2023-07-29T04:33:37;94285.13;;;18.08;100.00
11038;BME280;5572;49.540;11.932;2023-07-29T04:36:04;94298.41;;;17.95;100.00
11038;BME280;5572;49.540;11.932;2023-07-29T04:38:32;94308.19;;;18.00;100.00
11038;BME280;5572;49.540;11.932;2023-07-29T04:40:59;94322.66;;;18.00;100.00
11038;BME280;5572;49.540;11.932;2023-07-29T04:43:27;94344.53;;;18.00;100.00
11038;BME280;5572;49.540;11.932;2023-07-29T04:45:53;94365.22;;;18.05;100.00
11038;BME280;5572;49.540;11.932;2023-07-29T04:48:21;94357.78;;;18.09;100.00
11038;BME280;5572;49.540;11.932;2023-07-29T04:50:48;94360.56;;;18.26;100.00
11038;BME280;5572;49.540;11.932;2023-07-29T04:53:15;94348.06;;;18.25;100.00
11038;BME280;5572;49.540;11.932;2023-07-29T04:55:42;94356.25;;;18.18;100.00
11038;BME280;5572;49.540;11.932;2023-07-29T04:58:08;94366.41;;;18.21;100.00
11038;BME280;5572;49.540;11.932;2023-07-29T05:00:35;94361.75;;;18.28;100.00
11038;BME280;5572;49.540;11.932;2023-07-29T05:03:02;94331.25;;;18.44;100.00
11038;BME280;5572;49.540;11.932;2023-07-29T05:05:30;94315.22;;;18.53;100.00
11038;BME280;5572;49.540;11.932;2023-07-29T05:07:56;94196.06;;;21.28;100.00
11038;BME280;5572;49.540;11.932;2023-07-29T05:10:23;94125.41;;;21.25;100.00
11038;BME280;5572;49.540;11.932;2023-07-29T05:12:50;94003.59;;;22.55;100.00
11038;BME280;5572;49.540;11.932;2023-07-29T05:15:16;94039.03;;;21.72;100.00
11038;BME280;5572;49.540;11.932;2023-07-29T05:17:44;93942.13;;;23.09;100.00
11038;BME280;5572;49.540;11.932;2023-07-29T05:20:11;93975.47;;;23.15;100.00
11038;BME280;5572;49.540;11.932;2023-07-29T05:22:39;93969.75;;;22.90;100.00
11038;BME280;5572;49.540;11.932;2023-07-29T05:25:06;93953.06;;;23.29;100.00
11038;BME280;5572;49.540;11.932;2023-07-29T05:27:33;94018.56;;;22.89;100.00
11038;BME280;5572;49.540;11.932;2023-07-29T05:30:00;94049.06;;;22.24;100.00
11038;BME280;5572;49.540;11.932;2023-07-29T05:32:26;94080.69;;;20.69;100.00
11038;BME280;5572;49.540;11.932;2023-07-29T05:34:53;94065.41;;;20.04;100.00
11038;BME280;5572;49.540;11.932;2023-07-29T05:37:19;94007.78;;;20.64;100.00
11038;BME280;5572;49.540;11.932;2023-07-29T05:39:47;93976.94;;;21.52;100.00
11038;BME280;5572;49.540;11.932;2023-07-29T05:42:14;94065.50;;;20.90;100.00
11038;BME280;5572;49.540;11.932;2023-07-29T05:44:40;94076.63;;;21.06;100.00
11038;BME280;5572;49.540;11.932;2023-07-29T05:47:08;93999.50;;;20.68;100.00
11038;BME280;5572;49.540;11.932;2023-07-29T05:49:34;93981.78;;;20.98;100.00
11038;BME280;5572;49.540;11.932;2023-07-29T05:52:01;93996.66;;;21.47;100.00
11038;BME280;5572;49.540;11.932;2023-07-29T05:54:28;93980.78;;;23.38;100.00
11038;BME280;5572;49.540;11.932;2023-07-29T05:56:55;94099.34;;;23.22;100.00
11038;BME280;5572;49.540;11.932;2023-07-29T05:59:22;94236.44;;;21.31;100.00
11038;BME280;5572;49.540;11.932;2023-07-29T06:01:49;94237.16;;;21.35;100.00
11038;BME280;5572;49.540;11.932;2023-07-29T06:04:15;94246.88;;;21.13;100.00
11038;BME280;5572;49.540;11.932;2023-07-29T06:06:42;94219.03;;;21.71;100.00
11038;BME280;5572;49.540;11.932;2023-07-29T06:09:09;94230.28;;;22.03;100.00
11038;BME280;5572;49.540;11.932;2023-07-29T06:11:35;94302.59;;;21.47;100.00
11038;BME280;5572;49.540;11.932;2023-07-29T06:14:03;94279.75;;;21.24;100.00
11038;BME280;5572;49.540;11.932;2023-07-29T06:16:30;94278.94;;;21.23;100.00
11038;BME280;5572;49.540;11.932;2023-07-29T06:18:56;94271.88;;;21.26;100.00
11038;BME280;5572;49.540;11.932;2023-07-29T06:21:23;94275.63;;;21.05;100.00
11038;BME280;5572;49.540;11.932;2023-07-29T06:23:50;94277.91;;;20.74;100.00
11038;BME280;5572;49.540;11.932;2023-07-29T06:26:16;94269.34;;;20.68;100.00
11038;BME280;5572;49.540;11.932;2023-07-29T06:28:43;94281.28;;;20.51;100.00
11038;BME280;5572;49.540;11.932;2023-07-29T06:31:11;94271.31;;;20.68;100.00
11038;BME280;5572;49.540;11.932;2023-07-29T06:33:37;94276.34;;;20.36;100.00
11038;BME280;5572;49.540;11.932;2023-07-29T06:36:04;94252.91;;;21.01;100.00
11038;BME280;5572;49.540;11.932;2023-07-29T06:38:31;94264.53;;;21.16;100.00
11038;BME280;5572;49.540;11.932;2023-07-29T06:40:57;94260.31;;;21.38;100.00
11038;BME280;5572;49.540;11.932;2023-07-29T06:43:24;94291.53;;;21.21;100.00
11038;BME280;5572;49.540;11.932;2023-07-29T06:45:50;94306.38;;;20.93;100.00
11038;BME280;5572;49.540;11.932;2023-07-29T06:48:18;94306.47;;;20.86;100.00
11038;BME280;5572;49.540;11.932;2023-07-29T06:50:45;94279.38;;;21.22;100.00
11038;BME280;5572;49.540;11.932;2023-07-29T06:53:12;94288.00;;;21.54;100.00
11038;BME280;5572;49.540;11.932;2023-07-29T06:55:38;94277.25;;;21.92;100.00
11038;BME280;5572;49.540;11.932;2023-07-29T06:58:05;94326.81;;;22.15;100.00
11038;BME280;5572;49.540;11.932;2023-07-29T07:00:32;94344.84;;;21.93;100.00
11038;BME280;5572;49.540;11.932;2023-07-29T07:02:58;94371.06;;;21.71;100.00
11038;BME280;5572;49.540;11.932;2023-07-29T07:05:26;94366.13;;;22.68;100.00
11038;BME280;5572;49.540;11.932;2023-07-29T07:07:53;94416.75;;;21.95;100.00
11038;BME280;5572;49.540;11.932;2023-07-29T07:10:19;94425.75;;;21.96;100.00
11038;BME280;5572;49.540;11.932;2023-07-29T07:12:46;94445.00;;;21.66;100.00
11038;BME280;5572;49.540;11.932;2023-07-29T07:15:13;94457.66;;;21.60;100.00
11038;BME280;5572;49.540;11.932;2023-07-29T07:17:39;94450.31;;;21.43;100.00
11038;BME280;5572;49.540;11.932;2023-07-29T07:20:07;94474.94;;;21.13;100.00
11038;BME280;5572;49.540;11.932;2023-07-29T07:22:35;94454.19;;;21.09;100.00
11038;BME280;5572;49.540;11.932;2023-07-29T07:25:02;94463.34;;;20.95;100.00
11038;BME280;5572;49.540;11.932;2023-07-29T07:27:28;94502.72;;;20.75;100.00
11038;BME280;5572;49.540;11.932;2023-07-29T07:29:55;94470.78;;;20.41;100.00
11038;BME280;5572;49.540;11.932;2023-07-29T07:32:21;94443.03;;;20.25;100.00
11038;BME280;5572;49.540;11.932;2023-07-29T07:34:48;94426.34;;;19.88;100.00
11038;BME280;5572;49.540;11.932;2023-07-29T07:37:15;94421.34;;;19.73;100.00
11038;BME280;5572;49.540;11.932;2023-07-29T07:39:43;94403.72;;;19.74;100.00
11038;BME280;5572;49.540;11.932;2023-07-29T07:42:09;94373.81;;;20.03;100.00
11038;BME280;5572;49.540;11.932;2023-07-29T07:44:36;94340.75;;;20.21;100.00
11038;BME280;5572;49.540;11.932;2023-07-29T07:47:02;94339.19;;;20.20;100.00
11038;BME280;5572;49.540;11.932;2023-07-29T07:49:29;94329.44;;;20.12;100.00
11038;BME280;5572;49.540;11.932;2023-07-29T07:51:56;94335.00;;;20.01;100.00
11038;BME280;5572;49.540;11.932;2023-07-29T07:54:23;94317.78;;;20.01;100.00
11038;BME280;5572;49.540;11.932;2023-07-29T07:56:50;94285.50;;;20.19;100.00
11038;BME280;5572;49.540;11.932;2023-07-29T07:59:17;94263.03;;;20.34;100.00
11038;BME280;5572;49.540;11.932;2023-07-29T08:01:44;94280.28;;;19.81;100.00
11038;BME280;5572;49.540;11.932;2023-07-29T08:04:10;94266.19;;;19.79;100.00
11038;BME280;5572;49.540;11.932;2023-07-29T08:06:37;94257.97;;;19.79;100.00
11038;BME280;5572;49.540;11.932;2023-07-29T08:09:04;94248.50;;;19.87;100.00
11038;BME280;5572;49.540;11.932;2023-07-29T08:11:30;94228.72;;;20.12;100.00
11038;BME280;5572;49.540;11.932;2023-07-29T08:13:59;94178.47;;;20.22;100.00
11038;BME280;5572;49.540;11.932;2023-07-29T08:16:26;94170.13;;;20.33;100.00
11038;BME280;5572;49.540;11.932;2023-07-29T08:18:52;94153.25;;;20.34;100.00
11038;BME280;5572;49.540;11.932;2023-07-29T08:21:19;94156.69;;;20.42;100.00
11038;BME280;5572;49.540;11.932;2023-07-29T08:23:45;94127.72;;;20.71;100.00
11038;BME280;5572;49.540;11.932;2023-07-29T08:26:12;94135.31;;;20.60;100.00
11038;BME280;5572;49.540;11.932;2023-07-29T08:28:39;94152.03;;;20.72;100.00
11038;BME280;5572;49.540;11.932;2023-07-29T08:31:07;94167.34;;;20.70;100.00
11038;BME280;5572;49.540;11.932;2023-07-29T08:33:34;94164.63;;;20.70;100.00
11038;BME280;5572;49.540;11.932;2023-07-29T08:36:01;94159.81;;;20.77;100.00
11038;BME280;5572;49.540;11.932;2023-07-29T08:38:28;94160.75;;;20.97;100.00
11038;BME280;5572;49.540;11.932;2023-07-29T08:40:59;94167.47;;;20.92;100.00
11038;BME280;5572;49.540;11.932;2023-07-29T08:43:32;94142.50;;;21.10;100.00
11038;BME280;5572;49.540;11.932;2023-07-29T08:45:59;94154.75;;;21.05;100.00
11038;BME280;5572;49.540;11.932;2023-07-29T08:48:36;94146.59;;;20.98;100.00
11038;BME280;5572;49.540;11.932;2023-07-29T08:51:07;94138.22;;;21.09;100.00
11038;BME280;5572;49.540;11.932;2023-07-29T08:53:34;94149.16;;;20.82;100.00
11038;BME280;5572;49.540;11.932;2023-07-29T08:56:01;94155.31;;;20.60;100.00
11038;BME280;5572;49.540;11.932;2023-07-29T08:58:28;94141.91;;;20.66;100.00
11038;BME280;5572;49.540;11.932;2023-07-29T09:00:55;94144.09;;;20.48;100.00
11038;BME280;5572;49.540;11.932;2023-07-29T09:03:22;94132.19;;;20.58;100.00
11038;BME280;5572;49.540;11.932;2023-07-29T09:05:50;94149.91;;;20.53;100.00
11038;BME280;5572;49.540;11.932;2023-07-29T09:08:17;94155.97;;;20.38;100.00
11038;BME280;5572;49.540;11.932;2023-07-29T09:10:44;94148.44;;;20.45;100.00
11038;BME280;5572;49.540;11.932;2023-07-29T09:13:11;94136.72;;;20.71;100.00
11038;BME280;5572;49.540;11.932;2023-07-29T09:15:37;94166.81;;;20.48;100.00
11038;BME280;5572;49.540;11.932;2023-07-29T09:18:12;94166.38;;;20.53;100.00
11038;BME280;5572;49.540;11.932;2023-07-29T09:20:39;94180.25;;;20.39;100.00
11038;BME280;5572;49.540;11.932;2023-07-29T09:23:09;94185.41;;;20.34;100.00
11038;BME280;5572;49.540;11.932;2023-07-29T09:25:36;94170.66;;;20.21;100.00
11038;BME280;5572;49.540;11.932;2023-07-29T09:28:08;94178.34;;;19.92;100.00
11038;BME280;5572;49.540;11.932;2023-07-29T09:30:35;94183.19;;;19.75;100.00
11038;BME280;5572;49.540;11.932;2023-07-29T09:33:01;94182.97;;;19.52;100.00
11038;BME280;5572;49.540;11.932;2023-07-29T09:35:29;94196.66;;;19.55;100.00
11038;BME280;5572;49.540;11.932;2023-07-29T09:37:56;94226.41;;;19.53;100.00
11038;BME280;5572;49.540;11.932;2023-07-29T09:40:24;94235.81;;;19.56;100.00
11038;BME280;5572;49.540;11.932;2023-07-29T09:42:53;94250.66;;;19.62;100.00
11038;BME280;5572;49.540;11.932;2023-07-29T09:45:23;94277.03;;;19.38;100.00
11038;BME280;5572;49.540;11.932;2023-07-29T09:47:50;94289.56;;;19.36;100.00
11038;BME280;5572;49.540;11.932;2023-07-29T09:50:18;94304.50;;;19.17;100.00
11038;BME280;5572;49.540;11.932;2023-07-29T09:52:44;94313.88;;;19.30;100.00
11038;BME280;5572;49.540;11.932;2023-07-29T09:55:17;94327.22;;;19.14;100.00
11038;BME280;5572;49.540;11.932;2023-07-29T09:57:45;94338.25;;;18.80;100.00
11038;BME280;5572;49.540;11.932;2023-07-29T10:00:12;94333.19;;;18.68;100.00
11038;BME280;5572;49.540;11.932;2023-07-29T10:02:40;94343.28;;;18.99;100.00
11038;BME280;5572;49.540;11.932;2023-07-29T10:05:07;94355.47;;;18.70;100.00
11038;BME280;5572;49.540;11.932;2023-07-29T10:07:34;94358.16;;;18.87;100.00
11038;BME280;5572;49.540;11.932;2023-07-29T10:10:04;94365.63;;;18.73;100.00
11038;BME280;5572;49.540;11.932;2023-07-29T10:12:31;94363.63;;;19.01;100.00
11038;BME280;5572;49.540;11.932;2023-07-29T10:15:01;94378.91;;;18.78;100.00
11038;BME280;5572;49.540;11.932;2023-07-29T10:17:29;94382.03;;;18.73;100.00
11038;BME280;5572;49.540;11.932;2023-07-29T10:19:56;94390.25;;;18.66;100.00
11038;BME280;5572;49.540;11.932;2023-07-29T10:22:24;94385.16;;;18.75;100.00
11038;BME280;5572;49.540;11.932;2023-07-29T10:24:51;94375.03;;;18.75;100.00
11038;BME280;5572;49.540;11.932;2023-07-29T10:27:20;94387.53;;;18.66;100.00
11038;BME280;5572;49.540;11.932;2023-07-29T10:29:49;94382.44;;;18.78;100.00
11038;BME280;5572;49.540;11.932;2023-07-29T10:32:16;94378.56;;;18.65;100.00
11038;BME280;5572;49.540;11.932;2023-07-29T10:34:43;94396.53;;;18.52;100.00
11038;BME280;5572;49.540;11.932;2023-07-29T10:37:09;94387.16;;;18.57;100.00
11038;BME280;5572;49.540;11.932;2023-07-29T10:39:37;94393.41;;;18.54;100.00
11038;BME280;5572;49.540;11.932;2023-07-29T10:42:04;94414.91;;;18.69;100.00
11038;BME280;5572;49.540;11.932;2023-07-29T10:47:23;94406.25;;;19.05;100.00
11038;BME280;5572;49.540;11.932;2023-07-29T10:49:52;94388.19;;;19.43;100.00
11038;BME280;5572;49.540;11.932;2023-07-29T10:52:39;94374.88;;;19.45;100.00
11038;BME280;5572;49.540;11.932;2023-07-29T10:55:22;94359.38;;;19.86;100.00
11038;BME280;5572;49.540;11.932;2023-07-29T10:57:50;94348.28;;;20.10;100.00
11038;BME280;5572;49.540;11.932;2023-07-29T11:00:18;94360.75;;;20.21;100.00
11038;BME280;5572;49.540;11.932;2023-07-29T11:02:56;94312.00;;;20.83;100.00
11038;BME280;5572;49.540;11.932;2023-07-29T11:05:22;94259.31;;;21.55;100.00
11038;BME280;5572;49.540;11.932;2023-07-29T11:07:49;94247.72;;;21.40;100.00
11038;BME280;5572;49.540;11.932;2023-07-29T11:10:15;94222.28;;;21.33;100.00
11038;BME280;5572;49.540;11.932;2023-07-29T11:12:42;94193.16;;;21.91;100.00
11038;BME280;5572;49.540;11.932;2023-07-29T11:15:17;94192.63;;;21.47;100.00
11038;BME280;5572;49.540;11.932;2023-07-29T11:17:44;94161.09;;;21.55;100.00
11038;BME280;5572;49.540;11.932;2023-07-29T11:20:12;94125.13;;;22.15;100.00
11038;BME280;5572;49.540;11.932;2023-07-29T11:22:39;94110.56;;;22.37;100.00
11038;BME280;5572;49.540;11.932;2023-07-29T11:25:07;94061.53;;;23.86;100.00
11038;BME280;5572;49.540;11.932;2023-07-29T11:27:33;94113.44;;;23.59;100.00
11038;BME280;5572;49.540;11.932;2023-07-29T11:30:00;94105.13;;;23.43;100.00
11038;BME280;5572;49.540;11.932;2023-07-29T11:32:27;93979.25;;;23.97;100.00
11038;BME280;5572;49.540;11.932;2023-07-29T11:34:54;93988.03;;;23.92;100.00
11038;BME280;5572;49.540;11.932;2023-07-29T11:37:22;94026.94;;;23.97;100.00
11038;BME280;5572;49.540;11.932;2023-07-29T11:39:48;94026.19;;;24.25;100.00
11038;BME280;5572;49.540;11.932;2023-07-29T11:42:15;94045.16;;;24.23;100.00
11038;BME280;5572;49.540;11.932;2023-07-29T11:44:41;94115.00;;;23.60;100.00
11038;BME280;5572;49.540;11.932;2023-07-29T11:47:08;94139.22;;;23.52;100.00
11038;BME280;5572;49.540;11.932;2023-07-29T11:49:35;94105.25;;;23.71;100.00
11038;BME280;5572;49.540;11.932;2023-07-29T11:52:01;94180.84;;;22.84;100.00
11038;BME280;5572;49.540;11.932;2023-07-29T11:54:30;94173.34;;;22.46;100.00
11038;BME280;5572;49.540;11.932;2023-07-29T11:56:56;94201.66;;;22.23;100.00
11038;BME280;5572;49.540;11.932;2023-07-29T11:59:23;94177.09;;;22.09;100.00
11038;BME280;5572;49.540;11.932;2023-07-29T12:01:50;94163.88;;;22.66;100.00
11038;BME280;5572;49.540;11.932;2023-07-29T12:04:17;94153.31;;;22.84;100.00
11038;BME280;5572;49.540;11.932;2023-07-29T12:06:43;94215.47;;;22.43;100.00
11038;BME280;5572;49.540;11.932;2023-07-29T12:09:10;94207.81;;;22.31;100.00
11038;BME280;5572;49.540;11.932;2023-07-29T12:11:39;94196.94;;;22.47;100.00
11038;BME280;5572;49.540;11.932;2023-07-29T12:14:07;94203.38;;;22.79;100.00
11038;BME280;5572;49.540;11.932;2023-07-29T12:16:40;94185.28;;;23.36;100.00
11038;BME280;5572;49.540;11.932;2023-07-29T12:19:07;94241.25;;;22.75;100.00
11038;BME280;5572;49.540;11.932;2023-07-29T12:21:33;94242.22;;;22.65;100.00
11038;BME280;5572;49.540;11.932;2023-07-29T12:24:02;94220.84;;;23.31;100.00
11038;BME280;5572;49.540;11.932;2023-07-29T12:26:29;94198.81;;;23.46;100.00
11038;BME280;5572;49.540;11.932;2023-07-29T12:28:57;94278.31;;;23.32;100.00
11038;BME280;5572;49.540;11.932;2023-07-29T12:31:31;94297.56;;;23.55;100.00
11038;BME280;5572;49.540;11.932;2023-07-29T12:33:58;94294.41;;;23.92;100.00
11038;BME280;5572;49.540;11.932;2023-07-29T12:36:27;94330.47;;;24.01;100.00
11038;BME280;5572;49.540;11.932;2023-07-29T12:39:06;94402.69;;;23.99;100.00
11038;BME280;5572;49.540;11.932;2023-07-29T12:41:32;94462.38;;;23.70;100.00
11038;BME280;5572;49.540;11.932;2023-07-29T12:44:00;94475.06;;;23.68;100.00
11038;BME280;5572;49.540;11.932;2023-07-29T12:46:29;94476.31;;;24.06;100.00
11038;BME280;5572;49.540;11.932;2023-07-29T12:48:55;94519.09;;;23.75;100.00
11038;BME280;5572;49.540;11.932;2023-07-29T12:51:22;94499.69;;;24.59;100.00
11038;BME280;5572;49.540;11.932;2023-07-29T12:53:49;94540.81;;;24.15;100.00
11038;BME280;5572;49.540;11.932;2023-07-29T12:56:15;94553.56;;;24.29;100.00